sensor_id;sensor_type;location;lat;lon;timestamp;P1;durP1;ratioP1;P2;durP2;ratioP2
65936;SDS011;52707;52.086;5.418;2023-02-02T00:01:40;35.00;;;4.28;;
65936;SDS011;52707;52.086;5.418;2023-02-02T00:04:07;33.83;;;4.60;;
65936;SDS011;52707;52.086;5.418;2023-02-02T00:06:34;33.65;;;4.65;;
65936;SDS011;52707;52.086;5.418;2023-02-02T00:09:01;31.90;;;3.97;;
65936;SDS011;52707;52.086;5.418;2023-02-02T00:11:27;21.45;;;3.90;;
65936;SDS011;52707;52.086;5.418;2023-02-02T00:13:54;37.40;;;4.20;;
65936;SDS011;52707;52.086;5.418;2023-02-02T00:16:32;33.42;;;4.47;;
65936;SDS011;52707;52.086;5.418;2023-02-02T00:19:00;28.85;;;4.18;;
65936;SDS011;52707;52.086;5.418;2023-02-02T00:21:27;31.33;;;3.67;;
65936;SDS011;52707;52.086;5.418;2023-02-02T00:23:53;31.38;;;4.80;;
65936;SDS011;52707;52.086;5.418;2023-02-02T00:26:20;35.45;;;4.38;;
65936;SDS011;52707;52.086;5.418;2023-02-02T00:28:46;30.00;;;4.10;;
65936;SDS011;52707;52.086;5.418;2023-02-02T00:31:12;25.77;;;4.63;;
65936;SDS011;52707;52.086;5.418;2023-02-02T00:33:43;31.27;;;4.05;;
65936;SDS011;52707;52.086;5.418;2023-02-02T00:36:09;22.77;;;3.97;;
65936;SDS011;52707;52.086;5.418;2023-02-02T00:38:35;26.05;;;3.83;;
65936;SDS011;52707;52.086;5.418;2023-02-02T00:41:03;23.35;;;3.55;;
65936;SDS011;52707;52.086;5.418;2023-02-02T00:43:30;19.25;;;3.20;;
65936;SDS011;52707;52.086;5.418;2023-02-02T00:45:56;30.88;;;4.32;;
65936;SDS011;52707;52.086;5.418;2023-02-02T00:48:22;32.15;;;4.68;;
65936;SDS011;52707;52.086;5.418;2023-02-02T00:50:51;19.33;;;3.75;;
65936;SDS011;52707;52.086;5.418;2023-02-02T00:53:17;26.65;;;5.00;;
65936;SDS011;52707;52.086;5.418;2023-02-02T00:55:44;33.65;;;5.05;;
65936;SDS011;52707;52.086;5.418;2023-02-02T00:58:10;38.90;;;4.78;;
65936;SDS011;52707;52.086;5.418;2023-02-02T01:00:36;31.10;;;4.32;;
65936;SDS011;52707;52.086;5.418;2023-02-02T01:03:03;21.83;;;4.20;;
65936;SDS011;52707;52.086;5.418;2023-02-02T01:05:30;30.83;;;3.78;;
65936;SDS011;52707;52.086;5.418;2023-02-02T01:07:56;26.48;;;4.38;;
65936;SDS011;52707;52.086;5.418;2023-02-02T01:10:23;33.70;;;4.78;;
65936;SDS011;52707;52.086;5.418;2023-02-02T01:12:49;18.75;;;3.80;;
65936;SDS011;52707;52.086;5.418;2023-02-02T01:15:15;25.98;;;3.67;;
65936;SDS011;52707;52.086;5.418;2023-02-02T01:17:42;19.45;;;2.83;;
65936;SDS011;52707;52.086;5.418;2023-02-02T01:20:10;12.13;;;2.45;;
65936;SDS011;52707;52.086;5.418;2023-02-02T01:22:40;10.93;;;2.05;;
65936;SDS011;52707;52.086;5.418;2023-02-02T01:25:06;19.27;;;3.45;;
65936;SDS011;52707;52.086;5.418;2023-02-02T01:27:33;16.98;;;2.33;;
65936;SDS011;52707;52.086;5.418;2023-02-02T01:29:59;14.18;;;2.58;;
65936;SDS011;52707;52.086;5.418;2023-02-02T01:32:25;20.17;;;2.60;;
65936;SDS011;52707;52.086;5.418;2023-02-02T01:34:52;21.08;;;3.67;;
65936;SDS011;52707;52.086;5.418;2023-02-02T01:37:18;13.05;;;2.78;;
65936;SDS011;52707;52.086;5.418;2023-02-02T01:39:44;22.20;;;3.05;;
65936;SDS011;52707;52.086;5.418;2023-02-02T01:42:12;20.42;;;4.05;;
65936;SDS011;52707;52.086;5.418;2023-02-02T01:47:17;19.40;;;2.72;;
65936;SDS011;52707;52.086;5.418;2023-02-02T01:49:44;15.57;;;2.35;;
65936;SDS011;52707;52.086;5.418;2023-02-02T01:52:10;14.20;;;2.30;;
65936;SDS011;52707;52.086;5.418;2023-02-02T01:54:40;16.48;;;2.10;;
65936;SDS011;52707;52.086;5.418;2023-02-02T01:57:10;16.90;;;2.67;;
65936;SDS011;52707;52.086;5.418;2023-02-02T01:59:37;16.73;;;2.30;;
65936;SDS011;52707;52.086;5.418;2023-02-02T02:02:04;22.42;;;2.47;;
65936;SDS011;52707;52.086;5.418;2023-02-02T02:04:30;12.07;;;1.80;;
65936;SDS011;52707;52.086;5.418;2023-02-02T02:06:58;9.88;;;1.98;;
65936;SDS011;52707;52.086;5.418;2023-02-02T02:09:25;17.15;;;2.65;;
65936;SDS011;52707;52.086;5.418;2023-02-02T02:11:54;16.25;;;2.38;;
65936;SDS011;52707;52.086;5.418;2023-02-02T02:14:20;17.65;;;2.22;;
65936;SDS011;52707;52.086;5.418;2023-02-02T02:28:31;15.43;;;2.03;;
65936;SDS011;52707;52.086;5.418;2023-02-02T02:31:09;12.73;;;2.22;;
65936;SDS011;52707;52.086;5.418;2023-02-02T02:39:01;16.17;;;2.35;;
65936;SDS011;52707;52.086;5.418;2023-02-02T02:41:30;19.25;;;3.35;;
65936;SDS011;52707;52.086;5.418;2023-02-02T02:43:59;20.55;;;3.78;;
65936;SDS011;52707;52.086;5.418;2023-02-02T02:46:26;20.00;;;3.63;;
65936;SDS011;52707;52.086;5.418;2023-02-02T02:48:55;20.50;;;3.63;;
65936;SDS011;52707;52.086;5.418;2023-02-02T02:54:09;31.58;;;3.90;;
65936;SDS011;52707;52.086;5.418;2023-02-02T02:56:57;33.45;;;4.38;;
65936;SDS011;52707;52.086;5.418;2023-02-02T03:02:08;30.55;;;4.28;;
65936;SDS011;52707;52.086;5.418;2023-02-02T03:07:21;28.30;;;3.70;;
65936;SDS011;52707;52.086;5.418;2023-02-02T03:09:50;23.77;;;4.43;;
65936;SDS011;52707;52.086;5.418;2023-02-02T03:12:17;26.52;;;4.38;;
65936;SDS011;52707;52.086;5.418;2023-02-02T03:14:43;23.98;;;4.13;;
65936;SDS011;52707;52.086;5.418;2023-02-02T03:17:10;36.80;;;4.28;;
65936;SDS011;52707;52.086;5.418;2023-02-02T03:19:36;27.42;;;4.78;;
65936;SDS011;52707;52.086;5.418;2023-02-02T03:22:02;25.95;;;4.40;;
65936;SDS011;52707;52.086;5.418;2023-02-02T03:24:28;27.55;;;4.25;;
65936;SDS011;52707;52.086;5.418;2023-02-02T03:26:55;24.45;;;4.55;;
65936;SDS011;52707;52.086;5.418;2023-02-02T03:29:21;21.55;;;4.20;;
65936;SDS011;52707;52.086;5.418;2023-02-02T03:31:47;33.85;;;4.80;;
65936;SDS011;52707;52.086;5.418;2023-02-02T03:34:14;27.30;;;4.32;;
65936;SDS011;52707;52.086;5.418;2023-02-02T03:36:40;28.42;;;4.60;;
65936;SDS011;52707;52.086;5.418;2023-02-02T03:39:06;31.92;;;4.78;;
65936;SDS011;52707;52.086;5.418;2023-02-02T03:41:33;26.70;;;5.20;;
65936;SDS011;52707;52.086;5.418;2023-02-02T03:43:59;27.90;;;4.93;;
65936;SDS011;52707;52.086;5.418;2023-02-02T03:46:25;28.65;;;4.55;;
65936;SDS011;52707;52.086;5.418;2023-02-02T03:48:51;23.45;;;3.85;;
65936;SDS011;52707;52.086;5.418;2023-02-02T03:51:18;26.83;;;4.03;;
65936;SDS011;52707;52.086;5.418;2023-02-02T03:53:44;24.13;;;4.28;;
65936;SDS011;52707;52.086;5.418;2023-02-02T03:56:13;26.25;;;4.00;;
65936;SDS011;52707;52.086;5.418;2023-02-02T03:58:39;36.30;;;4.95;;
65936;SDS011;52707;52.086;5.418;2023-02-02T04:01:06;24.70;;;5.00;;
65936;SDS011;52707;52.086;5.418;2023-02-02T04:03:33;25.13;;;4.65;;
65936;SDS011;52707;52.086;5.418;2023-02-02T04:05:59;25.75;;;4.18;;
65936;SDS011;52707;52.086;5.418;2023-02-02T04:08:25;26.65;;;4.60;;
65936;SDS011;52707;52.086;5.418;2023-02-02T04:10:53;28.58;;;3.70;;
65936;SDS011;52707;52.086;5.418;2023-02-02T04:13:19;33.83;;;5.40;;
65936;SDS011;52707;52.086;5.418;2023-02-02T04:15:46;25.15;;;3.78;;
65936;SDS011;52707;52.086;5.418;2023-02-02T04:18:12;25.70;;;4.03;;
65936;SDS011;52707;52.086;5.418;2023-02-02T04:20:38;28.15;;;4.22;;
65936;SDS011;52707;52.086;5.418;2023-02-02T04:23:04;35.85;;;5.35;;
65936;SDS011;52707;52.086;5.418;2023-02-02T04:25:31;29.13;;;5.88;;
65936;SDS011;52707;52.086;5.418;2023-02-02T04:27:57;28.25;;;3.90;;
65936;SDS011;52707;52.086;5.418;2023-02-02T04:30:23;23.02;;;3.30;;
65936;SDS011;52707;52.086;5.418;2023-02-02T04:32:50;26.83;;;4.32;;
65936;SDS011;52707;52.086;5.418;2023-02-02T04:35:16;21.88;;;3.70;;
65936;SDS011;52707;52.086;5.418;2023-02-02T04:37:42;22.38;;;4.00;;
65936;SDS011;52707;52.086;5.418;2023-02-02T04:40:09;20.60;;;3.78;;
65936;SDS011;52707;52.086;5.418;2023-02-02T04:42:35;32.67;;;4.20;;
65936;SDS011;52707;52.086;5.418;2023-02-02T04:45:02;24.02;;;3.95;;
65936;SDS011;52707;52.086;5.418;2023-02-02T04:47:28;24.52;;;4.22;;
65936;SDS011;52707;52.086;5.418;2023-02-02T04:49:54;32.15;;;4.75;;
65936;SDS011;52707;52.086;5.418;2023-02-02T04:52:21;28.70;;;3.90;;
65936;SDS011;52707;52.086;5.418;2023-02-02T04:54:47;31.23;;;5.13;;
65936;SDS011;52707;52.086;5.418;2023-02-02T04:57:13;23.75;;;4.80;;
65936;SDS011;52707;52.086;5.418;2023-02-02T04:59:40;27.27;;;4.53;;
65936;SDS011;52707;52.086;5.418;2023-02-02T05:02:07;33.97;;;4.45;;
65936;SDS011;52707;52.086;5.418;2023-02-02T05:04:34;21.80;;;3.30;;
65936;SDS011;52707;52.086;5.418;2023-02-02T05:07:00;27.27;;;4.15;;
65936;SDS011;52707;52.086;5.418;2023-02-02T05:09:26;25.38;;;3.72;;
65936;SDS011;52707;52.086;5.418;2023-02-02T05:11:53;30.23;;;4.55;;
65936;SDS011;52707;52.086;5.418;2023-02-02T05:14:19;25.08;;;4.40;;
65936;SDS011;52707;52.086;5.418;2023-02-02T05:16:45;30.80;;;4.13;;
65936;SDS011;52707;52.086;5.418;2023-02-02T05:19:12;16.98;;;3.90;;
65936;SDS011;52707;52.086;5.418;2023-02-02T05:21:42;26.13;;;4.38;;
65936;SDS011;52707;52.086;5.418;2023-02-02T05:24:10;21.85;;;4.10;;
65936;SDS011;52707;52.086;5.418;2023-02-02T05:26:36;30.77;;;4.63;;
65936;SDS011;52707;52.086;5.418;2023-02-02T05:29:03;32.38;;;3.85;;
65936;SDS011;52707;52.086;5.418;2023-02-02T05:31:29;23.80;;;3.97;;
65936;SDS011;52707;52.086;5.418;2023-02-02T05:33:57;22.25;;;3.92;;
65936;SDS011;52707;52.086;5.418;2023-02-02T05:36:23;14.93;;;3.25;;
65936;SDS011;52707;52.086;5.418;2023-02-02T05:38:50;28.55;;;4.35;;
65936;SDS011;52707;52.086;5.418;2023-02-02T05:41:16;25.25;;;3.75;;
65936;SDS011;52707;52.086;5.418;2023-02-02T05:43:42;27.90;;;4.32;;
65936;SDS011;52707;52.086;5.418;2023-02-02T05:46:09;22.17;;;3.42;;
65936;SDS011;52707;52.086;5.418;2023-02-02T05:48:35;26.13;;;3.60;;
65936;SDS011;52707;52.086;5.418;2023-02-02T05:53:29;29.25;;;4.20;;
65936;SDS011;52707;52.086;5.418;2023-02-02T05:55:55;28.30;;;3.47;;
65936;SDS011;52707;52.086;5.418;2023-02-02T05:58:21;15.50;;;3.65;;
65936;SDS011;52707;52.086;5.418;2023-02-02T06:00:48;21.67;;;3.80;;
65936;SDS011;52707;52.086;5.418;2023-02-02T06:03:14;22.60;;;3.70;;
65936;SDS011;52707;52.086;5.418;2023-02-02T06:05:41;24.67;;;3.47;;
65936;SDS011;52707;52.086;5.418;2023-02-02T06:08:07;28.50;;;4.00;;
65936;SDS011;52707;52.086;5.418;2023-02-02T06:10:33;25.63;;;3.88;;
65936;SDS011;52707;52.086;5.418;2023-02-02T06:13:00;21.55;;;3.80;;
65936;SDS011;52707;52.086;5.418;2023-02-02T06:15:26;22.60;;;4.43;;
65936;SDS011;52707;52.086;5.418;2023-02-02T06:17:54;18.73;;;3.22;;
65936;SDS011;52707;52.086;5.418;2023-02-02T06:20:20;18.42;;;3.08;;
65936;SDS011;52707;52.086;5.418;2023-02-02T06:22:47;20.23;;;3.40;;
65936;SDS011;52707;52.086;5.418;2023-02-02T06:25:14;24.50;;;3.92;;
65936;SDS011;52707;52.086;5.418;2023-02-02T06:27:40;30.60;;;4.82;;
65936;SDS011;52707;52.086;5.418;2023-02-02T06:30:06;23.13;;;3.55;;
65936;SDS011;52707;52.086;5.418;2023-02-02T06:32:33;18.05;;;3.33;;
65936;SDS011;52707;52.086;5.418;2023-02-02T06:34:59;23.70;;;4.07;;
65936;SDS011;52707;52.086;5.418;2023-02-02T06:37:25;22.67;;;3.70;;
65936;SDS011;52707;52.086;5.418;2023-02-02T06:39:55;23.57;;;3.30;;
65936;SDS011;52707;52.086;5.418;2023-02-02T06:42:21;26.45;;;3.20;;
65936;SDS011;52707;52.086;5.418;2023-02-02T06:44:48;22.00;;;3.28;;
65936;SDS011;52707;52.086;5.418;2023-02-02T06:47:14;24.05;;;3.30;;
65936;SDS011;52707;52.086;5.418;2023-02-02T06:49:40;21.67;;;3.00;;
65936;SDS011;52707;52.086;5.418;2023-02-02T06:52:07;18.20;;;3.40;;
65936;SDS011;52707;52.086;5.418;2023-02-02T06:54:33;22.02;;;4.00;;
65936;SDS011;52707;52.086;5.418;2023-02-02T06:56:59;17.63;;;3.53;;
65936;SDS011;52707;52.086;5.418;2023-02-02T06:59:26;17.27;;;3.53;;
65936;SDS011;52707;52.086;5.418;2023-02-02T07:01:52;28.38;;;3.38;;
65936;SDS011;52707;52.086;5.418;2023-02-02T07:04:19;22.98;;;4.22;;
65936;SDS011;52707;52.086;5.418;2023-02-02T07:06:45;19.90;;;3.65;;
65936;SDS011;52707;52.086;5.418;2023-02-02T07:09:11;32.33;;;5.03;;
65936;SDS011;52707;52.086;5.418;2023-02-02T07:11:38;26.92;;;3.90;;
65936;SDS011;52707;52.086;5.418;2023-02-02T07:14:10;25.83;;;4.15;;
65936;SDS011;52707;52.086;5.418;2023-02-02T07:16:37;25.98;;;4.03;;
65936;SDS011;52707;52.086;5.418;2023-02-02T07:19:03;28.02;;;4.20;;
65936;SDS011;52707;52.086;5.418;2023-02-02T07:21:29;28.70;;;4.28;;
65936;SDS011;52707;52.086;5.418;2023-02-02T07:24:02;20.60;;;3.47;;
65936;SDS011;52707;52.086;5.418;2023-02-02T07:26:28;20.65;;;3.45;;
65936;SDS011;52707;52.086;5.418;2023-02-02T07:28:55;34.38;;;5.18;;
65936;SDS011;52707;52.086;5.418;2023-02-02T07:31:24;33.15;;;4.03;;
65936;SDS011;52707;52.086;5.418;2023-02-02T07:33:51;24.10;;;4.03;;
65936;SDS011;52707;52.086;5.418;2023-02-02T07:36:19;24.83;;;4.35;;
65936;SDS011;52707;52.086;5.418;2023-02-02T07:38:46;33.50;;;4.15;;
65936;SDS011;52707;52.086;5.418;2023-02-02T07:41:13;26.98;;;4.47;;
65936;SDS011;52707;52.086;5.418;2023-02-02T07:43:40;20.00;;;4.20;;
65936;SDS011;52707;52.086;5.418;2023-02-02T07:46:07;25.92;;;4.25;;
65936;SDS011;52707;52.086;5.418;2023-02-02T07:48:35;27.27;;;4.60;;
65936;SDS011;52707;52.086;5.418;2023-02-02T07:51:02;31.73;;;4.47;;
65936;SDS011;52707;52.086;5.418;2023-02-02T07:53:29;23.98;;;4.15;;
65936;SDS011;52707;52.086;5.418;2023-02-02T07:56:08;22.00;;;4.00;;
65936;SDS011;52707;52.086;5.418;2023-02-02T07:58:35;27.58;;;3.70;;
65936;SDS011;52707;52.086;5.418;2023-02-02T08:01:03;24.55;;;3.88;;
65936;SDS011;52707;52.086;5.418;2023-02-02T08:03:30;27.20;;;3.85;;
65936;SDS011;52707;52.086;5.418;2023-02-02T08:05:56;23.83;;;4.40;;
65936;SDS011;52707;52.086;5.418;2023-02-02T08:08:23;21.83;;;3.20;;
65936;SDS011;52707;52.086;5.418;2023-02-02T08:10:50;20.10;;;3.33;;
65936;SDS011;52707;52.086;5.418;2023-02-02T08:13:17;28.13;;;3.83;;
65936;SDS011;52707;52.086;5.418;2023-02-02T08:15:43;29.83;;;4.00;;
65936;SDS011;52707;52.086;5.418;2023-02-02T08:18:09;26.63;;;4.10;;
65936;SDS011;52707;52.086;5.418;2023-02-02T08:20:36;24.35;;;3.30;;
65936;SDS011;52707;52.086;5.418;2023-02-02T08:23:02;18.58;;;2.95;;
65936;SDS011;52707;52.086;5.418;2023-02-02T08:25:28;35.83;;;4.20;;
65936;SDS011;52707;52.086;5.418;2023-02-02T08:27:55;15.73;;;3.47;;
65936;SDS011;52707;52.086;5.418;2023-02-02T08:30:23;27.13;;;4.47;;
65936;SDS011;52707;52.086;5.418;2023-02-02T08:32:50;22.63;;;3.92;;
65936;SDS011;52707;52.086;5.418;2023-02-02T08:35:16;25.77;;;3.35;;
65936;SDS011;52707;52.086;5.418;2023-02-02T08:37:46;33.58;;;4.07;;
65936;SDS011;52707;52.086;5.418;2023-02-02T08:40:13;19.15;;;3.25;;
65936;SDS011;52707;52.086;5.418;2023-02-02T08:42:39;23.30;;;3.92;;
65936;SDS011;52707;52.086;5.418;2023-02-02T08:45:06;27.83;;;4.65;;
65936;SDS011;52707;52.086;5.418;2023-02-02T08:47:52;16.98;;;2.95;;
65936;SDS011;52707;52.086;5.418;2023-02-02T08:50:36;36.38;;;3.97;;
65936;SDS011;52707;52.086;5.418;2023-02-02T08:53:02;21.88;;;2.83;;
65936;SDS011;52707;52.086;5.418;2023-02-02T08:55:29;18.70;;;3.13;;
65936;SDS011;52707;52.086;5.418;2023-02-02T08:57:55;26.20;;;3.95;;
65936;SDS011;52707;52.086;5.418;2023-02-02T09:00:21;24.88;;;3.70;;
65936;SDS011;52707;52.086;5.418;2023-02-02T09:02:50;23.10;;;3.47;;
65936;SDS011;52707;52.086;5.418;2023-02-02T09:05:17;22.65;;;3.42;;
65936;SDS011;52707;52.086;5.418;2023-02-02T09:07:43;21.83;;;3.15;;
65936;SDS011;52707;52.086;5.418;2023-02-02T09:10:10;24.02;;;3.03;;
65936;SDS011;52707;52.086;5.418;2023-02-02T09:12:37;29.23;;;3.70;;
65936;SDS011;52707;52.086;5.418;2023-02-02T09:15:03;23.95;;;3.80;;
65936;SDS011;52707;52.086;5.418;2023-02-02T09:17:29;26.38;;;3.97;;
65936;SDS011;52707;52.086;5.418;2023-02-02T09:19:56;24.02;;;4.10;;
65936;SDS011;52707;52.086;5.418;2023-02-02T09:22:29;20.48;;;3.30;;
65936;SDS011;52707;52.086;5.418;2023-02-02T09:24:55;12.60;;;3.05;;
65936;SDS011;52707;52.086;5.418;2023-02-02T09:27:22;23.67;;;4.18;;
65936;SDS011;52707;52.086;5.418;2023-02-02T09:29:48;19.48;;;3.15;;
65936;SDS011;52707;52.086;5.418;2023-02-02T09:32:14;28.15;;;3.38;;
65936;SDS011;52707;52.086;5.418;2023-02-02T09:34:41;21.80;;;3.67;;
65936;SDS011;52707;52.086;5.418;2023-02-02T09:37:07;15.70;;;3.30;;
65936;SDS011;52707;52.086;5.418;2023-02-02T09:39:33;34.83;;;4.35;;
65936;SDS011;52707;52.086;5.418;2023-02-02T09:42:16;16.95;;;3.00;;
65936;SDS011;52707;52.086;5.418;2023-02-02T09:44:57;30.17;;;3.92;;
65936;SDS011;52707;52.086;5.418;2023-02-02T09:47:30;18.67;;;3.00;;
65936;SDS011;52707;52.086;5.418;2023-02-02T09:50:19;27.77;;;3.65;;
65936;SDS011;52707;52.086;5.418;2023-02-02T09:52:54;15.05;;;2.92;;
65936;SDS011;52707;52.086;5.418;2023-02-02T09:55:34;25.27;;;3.88;;
65936;SDS011;52707;52.086;5.418;2023-02-02T10:00:44;30.58;;;3.70;;
65936;SDS011;52707;52.086;5.418;2023-02-02T10:03:13;24.15;;;3.15;;
65936;SDS011;52707;52.086;5.418;2023-02-02T10:05:44;24.98;;;4.10;;
65936;SDS011;52707;52.086;5.418;2023-02-02T10:08:14;15.10;;;3.33;;
65936;SDS011;52707;52.086;5.418;2023-02-02T10:10:59;32.65;;;3.40;;
65936;SDS011;52707;52.086;5.418;2023-02-02T10:13:28;21.48;;;3.08;;
65936;SDS011;52707;52.086;5.418;2023-02-02T10:15:58;23.55;;;3.47;;
65936;SDS011;52707;52.086;5.418;2023-02-02T10:18:33;30.48;;;4.80;;
65936;SDS011;52707;52.086;5.418;2023-02-02T10:21:07;19.67;;;4.43;;
65936;SDS011;52707;52.086;5.418;2023-02-02T10:23:39;22.77;;;3.50;;
65936;SDS011;52707;52.086;5.418;2023-02-02T10:26:16;23.60;;;4.05;;
65936;SDS011;52707;52.086;5.418;2023-02-02T10:28:57;25.50;;;3.75;;
65936;SDS011;52707;52.086;5.418;2023-02-02T10:39:29;21.73;;;4.00;;
65936;SDS011;52707;52.086;5.418;2023-02-02T10:44:36;26.73;;;4.50;;
65936;SDS011;52707;52.086;5.418;2023-02-02T10:47:08;23.30;;;3.25;;
65936;SDS011;52707;52.086;5.418;2023-02-02T10:49:36;26.13;;;4.23;;
65936;SDS011;52707;52.086;5.418;2023-02-02T10:58:05;12.00;;;2.90;;
65936;SDS011;52707;52.086;5.418;2023-02-02T11:00:14;21.85;;;3.35;;
65936;SDS011;52707;52.086;5.418;2023-02-02T11:02:41;16.27;;;3.33;;
65936;SDS011;52707;52.086;5.418;2023-02-02T11:05:19;25.67;;;3.88;;
65936;SDS011;52707;52.086;5.418;2023-02-02T11:08:11;24.65;;;4.20;;
65936;SDS011;52707;52.086;5.418;2023-02-02T11:10:37;29.63;;;3.40;;
65936;SDS011;52707;52.086;5.418;2023-02-02T11:13:04;31.23;;;4.53;;
65936;SDS011;52707;52.086;5.418;2023-02-02T11:15:31;27.40;;;4.30;;
65936;SDS011;52707;52.086;5.418;2023-02-02T11:18:14;30.88;;;3.55;;
65936;SDS011;52707;52.086;5.418;2023-02-02T11:20:50;24.70;;;3.60;;
65936;SDS011;52707;52.086;5.418;2023-02-02T11:23:17;18.85;;;4.28;;
65936;SDS011;52707;52.086;5.418;2023-02-02T11:25:44;18.58;;;2.88;;
65936;SDS011;52707;52.086;5.418;2023-02-02T11:28:18;22.13;;;3.45;;
65936;SDS011;52707;52.086;5.418;2023-02-02T11:30:45;21.40;;;2.85;;
65936;SDS011;52707;52.086;5.418;2023-02-02T11:33:29;22.17;;;3.25;;
65936;SDS011;52707;52.086;5.418;2023-02-02T11:35:58;23.15;;;3.58;;
65936;SDS011;52707;52.086;5.418;2023-02-02T11:38:25;25.30;;;3.83;;
65936;SDS011;52707;52.086;5.418;2023-02-02T11:41:05;18.10;;;2.92;;
65936;SDS011;52707;52.086;5.418;2023-02-02T11:44:09;8.93;;;2.47;;
65936;SDS011;52707;52.086;5.418;2023-02-02T11:46:31;25.58;;;3.05;;
65936;SDS011;52707;52.086;5.418;2023-02-02T11:49:10;15.20;;;2.50;;
65936;SDS011;52707;52.086;5.418;2023-02-02T11:51:38;14.82;;;2.58;;
65936;SDS011;52707;52.086;5.418;2023-02-02T11:54:13;16.02;;;2.58;;
65936;SDS011;52707;52.086;5.418;2023-02-02T11:56:40;20.25;;;3.50;;
65936;SDS011;52707;52.086;5.418;2023-02-02T11:59:12;25.45;;;3.00;;
65936;SDS011;52707;52.086;5.418;2023-02-02T12:01:50;16.05;;;2.95;;
65936;SDS011;52707;52.086;5.418;2023-02-02T12:06:43;23.30;;;2.65;;
65936;SDS011;52707;52.086;5.418;2023-02-02T12:09:16;15.15;;;2.72;;
65936;SDS011;52707;52.086;5.418;2023-02-02T12:17:00;13.40;;;2.83;;
65936;SDS011;52707;52.086;5.418;2023-02-02T12:19:38;19.70;;;3.22;;
65936;SDS011;52707;52.086;5.418;2023-02-02T12:24:57;25.17;;;3.85;;
65936;SDS011;52707;52.086;5.418;2023-02-02T12:27:38;22.70;;;3.33;;
65936;SDS011;52707;52.086;5.418;2023-02-02T12:30:09;18.00;;;3.00;;
65936;SDS011;52707;52.086;5.418;2023-02-02T12:32:45;20.25;;;2.50;;
65936;SDS011;52707;52.086;5.418;2023-02-02T12:35:20;20.30;;;3.55;;
65936;SDS011;52707;52.086;5.418;2023-02-02T12:43:37;19.42;;;2.80;;
65936;SDS011;52707;52.086;5.418;2023-02-02T12:46:09;22.30;;;3.67;;
65936;SDS011;52707;52.086;5.418;2023-02-02T12:56:08;22.35;;;2.85;;
65936;SDS011;52707;52.086;5.418;2023-02-02T12:58:43;17.30;;;2.65;;
65936;SDS011;52707;52.086;5.418;2023-02-02T13:04:25;20.38;;;2.75;;
65936;SDS011;52707;52.086;5.418;2023-02-02T13:09:11;19.52;;;2.97;;
65936;SDS011;52707;52.086;5.418;2023-02-02T13:11:51;17.88;;;2.95;;
65936;SDS011;52707;52.086;5.418;2023-02-02T13:14:22;15.93;;;3.17;;
65936;SDS011;52707;52.086;5.418;2023-02-02T13:16:50;23.30;;;3.20;;
65936;SDS011;52707;52.086;5.418;2023-02-02T13:19:35;23.15;;;3.42;;
65936;SDS011;52707;52.086;5.418;2023-02-02T13:22:02;12.88;;;3.13;;
65936;SDS011;52707;52.086;5.418;2023-02-02T13:24:30;10.75;;;2.85;;
65936;SDS011;52707;52.086;5.418;2023-02-02T13:26:58;20.05;;;3.92;;
65936;SDS011;52707;52.086;5.418;2023-02-02T13:29:34;21.80;;;3.13;;
65936;SDS011;52707;52.086;5.418;2023-02-02T13:32:19;20.40;;;3.25;;
65936;SDS011;52707;52.086;5.418;2023-02-02T13:34:54;27.60;;;3.53;;
65936;SDS011;52707;52.086;5.418;2023-02-02T13:37:36;16.88;;;2.58;;
65936;SDS011;52707;52.086;5.418;2023-02-02T13:40:52;30.30;;;3.83;;
65936;SDS011;52707;52.086;5.418;2023-02-02T13:48:04;24.83;;;3.10;;
65936;SDS011;52707;52.086;5.418;2023-02-02T13:50:34;16.75;;;3.97;;
65936;SDS011;52707;52.086;5.418;2023-02-02T13:53:09;16.20;;;2.67;;
65936;SDS011;52707;52.086;5.418;2023-02-02T13:58:38;12.85;;;2.15;;
65936;SDS011;52707;52.086;5.418;2023-02-02T14:01:09;8.52;;;2.10;;
65936;SDS011;52707;52.086;5.418;2023-02-02T14:03:38;7.50;;;2.03;;
65936;SDS011;52707;52.086;5.418;2023-02-02T14:08:31;6.40;;;2.00;;
65936;SDS011;52707;52.086;5.418;2023-02-02T14:10:59;7.50;;;1.67;;
65936;SDS011;52707;52.086;5.418;2023-02-02T14:13:36;5.65;;;2.05;;
65936;SDS011;52707;52.086;5.418;2023-02-02T14:18:57;5.75;;;1.50;;
65936;SDS011;52707;52.086;5.418;2023-02-02T14:23:57;3.58;;;1.50;;
65936;SDS011;52707;52.086;5.418;2023-02-02T14:31:55;1.80;;;1.20;;
65936;SDS011;52707;52.086;5.418;2023-02-02T14:34:27;7.07;;;1.60;;
65936;SDS011;52707;52.086;5.418;2023-02-02T14:39:45;3.22;;;0.95;;
65936;SDS011;52707;52.086;5.418;2023-02-02T14:42:25;0.90;;;0.90;;
65936;SDS011;52707;52.086;5.418;2023-02-02T14:45:15;2.90;;;1.30;;
65936;SDS011;52707;52.086;5.418;2023-02-02T14:47:58;2.10;;;0.90;;
65936;SDS011;52707;52.086;5.418;2023-02-02T14:50:29;3.78;;;1.20;;
65936;SDS011;52707;52.086;5.418;2023-02-02T14:52:56;1.23;;;1.10;;
65936;SDS011;52707;52.086;5.418;2023-02-02T14:55:25;2.97;;;0.93;;
65936;SDS011;52707;52.086;5.418;2023-02-02T14:57:56;2.60;;;0.90;;
65936;SDS011;52707;52.086;5.418;2023-02-02T15:00:24;1.13;;;0.80;;
65936;SDS011;52707;52.086;5.418;2023-02-02T15:02:51;4.68;;;1.23;;
65936;SDS011;52707;52.086;5.418;2023-02-02T15:08:32;2.60;;;1.50;;
65936;SDS011;52707;52.086;5.418;2023-02-02T15:13:25;2.05;;;1.60;;
65936;SDS011;52707;52.086;5.418;2023-02-02T15:16:06;2.45;;;2.05;;
65936;SDS011;52707;52.086;5.418;2023-02-02T15:18:40;3.45;;;2.95;;
65936;SDS011;52707;52.086;5.418;2023-02-02T15:21:07;5.47;;;2.78;;
65936;SDS011;52707;52.086;5.418;2023-02-02T15:23:43;11.18;;;4.80;;
65936;SDS011;52707;52.086;5.418;2023-02-02T15:26:17;4.63;;;3.30;;
65936;SDS011;52707;52.086;5.418;2023-02-02T15:28:50;5.80;;;2.83;;
65936;SDS011;52707;52.086;5.418;2023-02-02T15:31:18;4.50;;;2.72;;
65936;SDS011;52707;52.086;5.418;2023-02-02T15:36:16;6.07;;;3.20;;
65936;SDS011;52707;52.086;5.418;2023-02-02T15:38:43;8.88;;;3.50;;
65936;SDS011;52707;52.086;5.418;2023-02-02T15:43:37;12.27;;;3.60;;
65936;SDS011;52707;52.086;5.418;2023-02-02T15:46:05;11.10;;;4.22;;
65936;SDS011;52707;52.086;5.418;2023-02-02T15:48:32;11.38;;;3.65;;
65936;SDS011;52707;52.086;5.418;2023-02-02T15:51:01;13.50;;;4.40;;
65936;SDS011;52707;52.086;5.418;2023-02-02T15:55:55;8.40;;;4.00;;
65936;SDS011;52707;52.086;5.418;2023-02-02T15:58:26;10.70;;;4.45;;
65936;SDS011;52707;52.086;5.418;2023-02-02T16:00:58;10.75;;;4.30;;
65936;SDS011;52707;52.086;5.418;2023-02-02T16:03:26;14.88;;;4.80;;
65936;SDS011;52707;52.086;5.418;2023-02-02T16:05:54;13.30;;;3.73;;
65936;SDS011;52707;52.086;5.418;2023-02-02T16:10:50;12.48;;;4.57;;
65936;SDS011;52707;52.086;5.418;2023-02-02T16:13:26;12.93;;;5.15;;
65936;SDS011;52707;52.086;5.418;2023-02-02T16:15:54;11.90;;;5.07;;
65936;SDS011;52707;52.086;5.418;2023-02-02T16:18:20;13.63;;;5.00;;
65936;SDS011;52707;52.086;5.418;2023-02-02T16:20:47;18.38;;;5.75;;
65936;SDS011;52707;52.086;5.418;2023-02-02T16:23:23;14.23;;;5.05;;
65936;SDS011;52707;52.086;5.418;2023-02-02T16:25:51;13.98;;;5.18;;
65936;SDS011;52707;52.086;5.418;2023-02-02T16:28:18;18.40;;;6.18;;
65936;SDS011;52707;52.086;5.418;2023-02-02T16:30:45;20.67;;;5.72;;
65936;SDS011;52707;52.086;5.418;2023-02-02T16:33:27;18.95;;;5.57;;
65936;SDS011;52707;52.086;5.418;2023-02-02T16:35:54;21.13;;;6.70;;
65936;SDS011;52707;52.086;5.418;2023-02-02T16:40:47;25.02;;;7.53;;
65936;SDS011;52707;52.086;5.418;2023-02-02T16:45:44;18.85;;;6.68;;
65936;SDS011;52707;52.086;5.418;2023-02-02T16:51:01;23.80;;;6.97;;
65936;SDS011;52707;52.086;5.418;2023-02-02T16:53:28;23.73;;;7.63;;